Station: Hamilton  

  Atmospheric Gas Attenuation - ITU Rec 676-11   ----------------- dB/100km -----------------
Date Time Temp RH % AH g/m3 Dew Point Wind Direction Speed kph Gust kph Barometer mB Rainfall Since 9am 24GHz 47GHz 76GHz 122GHz 134GHz 241GHz
08/05 12:30 12.6 99 10.95 12.4 24 32 1026.8 1 24.7 30.8 51.1 134.5 134.3 463.6
08/05 12:20 13.1 99 11.3 12.9 20 24 1026.7 1 25.4 31.3 52.4 137.8 138.5 478.5
08/05 12:10 12.6 99 10.95 12.4 19 22 1026.8 1 24.7 30.8 51.1 134.5 134.3 463.6
08/05 12:00 12.4 99 10.82 12.2 24 32 1026.9 0.6 24.4 30.7 50.7 133.3 132.7 458.2
08/05 11:50 12.6 99 10.95 12.4 22 30 1026.8 0.6 24.7 30.8 51.1 134.5 134.3 463.6
08/05 11:40 12.9 99 11.16 12.7 26 30 1026.8 0.6 25.1 31.1 51.9 136.5 136.8 472.6
08/05 11:30 12.4 99 10.82 12.2 24 33 1026.9 0.6 24.4 30.7 50.7 133.3 132.7 458.2
08/05 11:20 12.2 99 10.68 12 19 24 1026.8 0.6 24.1 30.5 50.2 131.9 131.0 452.2
08/05 11:10 12.1 99 10.62 11.9 20 26 1026.8 0.6 24.0 30.4 50.0 131.4 130.3 449.7
08/05 11:00 11.8 99 10.42 11.6 22 28 1026.9 0.4 23.6 30.2 49.3 129.5 127.9 441.2
08/05 10:50 11.8 99 10.42 11.6 22 24 1026.7 0 23.6 30.2 49.3 129.5 127.9 441.2
08/05 10:40 11.9 99 10.49 11.7 22 24 1026.6 0 23.7 30.2 49.5 130.2 128.7 444.1
08/05 10:30 11.7 99 10.36 11.5 24 33 1026.6 0 23.5 30.1 49.1 129.0 127.2 438.6
08/05 10:20 11.6 99 10.29 11.4 22 26 1026.4 0 23.3 30.0 48.8 128.3 126.3 435.6
08/05 10:10 11.5 99 10.23 11.3 28 32 1026.3 0 23.2 29.9 48.6 127.7 125.6 433.0
08/05 10:00 11.6 99 10.29 11.4 22 32 1026.4 0 23.3 30.0 48.8 128.3 126.3 435.6
08/05 09:50 11.3 99 10.1 11.1 20 22 1026.3 0 22.9 29.7 48.1 126.5 124.0 427.5
08/05 09:40 11.3 99 10.1 11.1 24 26 1026.4 0 22.9 29.7 48.2 126.5 124.0 427.6
08/05 09:30 11.3 99 10.1 11.1 20 28 1026.4 0 22.9 29.7 48.2 126.5 124.0 427.6
08/05 09:20 11 99 9.91 10.8 20 24 1026.3 0 22.5 29.5 47.5 124.8 121.7 419.5
08/05 09:10 11 99 9.91 10.8 20 24 1026.4 0 22.5 29.5 47.5 124.8 121.7 419.6
08/05 09:00 11 99 9.91 10.8 20 26 1026.4 0 22.5 29.5 47.5 124.8 121.7 419.6
08/05 08:50 10.8 99 9.79 10.6 26 26 1026.3 2.4 22.3 29.4 47.1 123.7 120.3 414.5
08/05 08:40 10.9 99 9.85 10.7 17 17 1026.2 2.4 22.4 29.4 47.3 124.2 121.0 417.0
08/05 08:30 10.8 99 9.79 10.6 19 26 1026.2 2.4 22.3 29.4 47.1 123.6 120.3 414.5
08/05 08:20 10.8 99 9.79 10.6 19 20 1025.9 2 22.3 29.3 47.1 123.6 120.3 414.4
08/05 08:10 10.7 99 9.73 10.5 17 19 1025.8 2 22.2 29.3 46.9 123.1 119.5 411.9
08/05 08:00 10.7 99 9.73 10.5 17 24 1025.8 2 22.2 29.3 46.9 123.1 119.5 411.9
08/05 07:50 10.6 99 9.66 10.4 19 20 1025.6 2 22.0 29.2 46.6 122.4 118.7 408.8
08/05 07:40 10.6 99 9.66 10.4 19 22 1025.4 2 22.0 29.2 46.6 122.3 118.6 408.7
08/05 07:30 10.5 99 9.6 10.3 17 22 1025.3 2 21.9 29.1 46.4 121.8 117.9 406.2
08/05 07:20 10.5 99 9.6 10.3 19 20 1025.2 2 21.9 29.1 46.4 121.8 117.9 406.2
08/05 07:10 10.5 99 9.6 10.3 15 20 1025 1.8 21.9 29.1 46.4 121.8 117.9 406.1
08/05 07:00 10.4 99 9.54 10.2 17 22 1024.9 1.8 21.8 29.0 46.2 121.2 117.2 403.6
08/05 06:50 10.5 99 9.6 10.3 19 20 1024.8 1.8 21.9 29.1 46.4 121.7 117.9 406.0
08/05 06:40 10.6 99 9.66 10.4 20 26 1024.7 1.8 22.0 29.1 46.6 122.3 118.6 408.5
08/05 06:30 10.5 99 9.6 10.3 24 33 1024.6 1.8 21.9 29.1 46.3 121.7 117.9 406.0
08/05 06:20 10.4 99 9.54 10.2 20 24 1024.6 1.8 21.8 29.0 46.1 121.2 117.1 403.5
08/05 06:10 10.4 99 9.54 10.2 20 24 1024.6 1.8 21.8 29.0 46.1 121.2 117.1 403.5
08/05 06:00 10.5 99 9.6 10.3 22 30 1024.4 1.8 21.9 29.0 46.3 121.7 117.8 405.9
08/05 05:50 10.6 99 9.66 10.4 22 30 1024.4 1.8 22.0 29.1 46.5 122.2 118.6 408.4
08/05 05:40 10.6 99 9.66 10.4 26 28 1024.4 1.8 22.0 29.1 46.5 122.2 118.6 408.4
08/05 05:30 10.6 99 9.66 10.4 26 37 1024.4 1.6 22.0 29.1 46.5 122.2 118.6 408.4
08/05 05:20 10.7 99 9.73 10.5 17 17 1024.2 1.6 22.2 29.2 46.8 122.9 119.4 411.4
08/05 05:10 10.7 99 9.73 10.5 20 22 1024.3 1.6 22.2 29.2 46.8 122.9 119.4 411.4
08/05 05:00 10.7 99 9.73 10.5 28 35 1024.1 1.6 22.2 29.2 46.8 122.9 119.4 411.3
08/05 04:50 10.8 99 9.79 10.6 32 35 1024 1.6 22.3 29.3 47.0 123.4 120.1 413.8
08/05 04:40 10.8 99 9.79 10.6 24 28 1024 1.6 22.3 29.3 47.0 123.4 120.1 413.8
08/05 04:30 10.9 99 9.85 10.7 28 39 1023.8 1.6 22.4 29.3 47.2 123.9 120.8 416.2
08/05 04:20 10.9 99 9.85 10.7 32 35 1023.6 1.6 22.4 29.3 47.2 123.9 120.8 416.2
08/05 04:10 10.9 99 9.85 10.7 24 28 1023.7 1.6 22.4 29.3 47.2 123.9 120.8 416.2
08/05 04:00 10.9 99 9.85 10.7 28 35 1023.8 1.4 22.4 29.3 47.2 123.9 120.8 416.2
08/05 03:50 10.9 99 9.85 10.7 22 24 1023.6 1.2 22.4 29.3 47.2 123.9 120.8 416.2
08/05 03:40 10.9 99 9.85 10.7 20 24 1023.7 1.2 22.4 29.3 47.2 123.9 120.8 416.2
08/05 03:30 11 99 9.91 10.8 20 39 1023.7 1.2 22.5 29.4 47.4 124.4 121.5 418.7
08/05 03:20 11 99 9.91 10.8 22 24 1023.5 0.8 22.5 29.4 47.4 124.4 121.5 418.6
08/05 03:10 10.9 99 9.85 10.7 28 35 1023.5 0.8 22.4 29.3 47.1 123.9 120.7 416.1
08/05 03:00 11 99 9.91 10.8 26 37 1023.9 0.8 22.5 29.4 47.4 124.5 121.5 418.8
08/05 02:50 10.9 99 9.85 10.7 28 32 1023.6 0.6 22.4 29.3 47.2 123.9 120.8 416.2
08/05 02:40 10.9 99 9.85 10.7 28 35 1023.7 0.6 22.4 29.3 47.2 123.9 120.8 416.2
08/05 02:30 10.9 99 9.85 10.7 22 35 1024 0.6 22.4 29.3 47.2 123.9 120.8 416.3
08/05 02:20 10.9 99 9.85 10.7 17 19 1023.7 0.6 22.4 29.3 47.2 123.9 120.8 416.2
08/05 02:10 10.8 99 9.79 10.6 24 28 1023.8 0.4 22.3 29.3 47.0 123.4 120.1 413.7
08/05 02:00 10.8 99 9.79 10.6 22 30 1024 0.4 22.3 29.3 47.0 123.4 120.1 413.8
08/05 01:50 10.8 99 9.79 10.6 26 30 1024.1 0.4 22.3 29.3 47.0 123.4 120.1 413.8
08/05 01:40 10.8 99 9.79 10.6 20 22 1024.2 0.4 22.3 29.3 47.0 123.4 120.1 413.9
08/05 01:30 10.7 99 9.73 10.5 22 30 1024.3 0.4 22.2 29.2 46.8 122.9 119.4 411.4
08/05 01:20 10.7 99 9.73 10.5 24 26 1024.5 0.4 22.2 29.2 46.8 122.9 119.4 411.5
08/05 01:10 10.6 99 9.66 10.4 24 30 1024.4 0.4 22.0 29.1 46.5 122.2 118.6 408.4
08/05 01:00 10.6 99 9.66 10.4 22 32 1024.5 0.4 22.0 29.1 46.5 122.2 118.6 408.4
08/05 00:50 10.5 99 9.6 10.3 26 33 1024.5 0.4 21.9 29.1 46.3 121.7 117.9 405.9
08/05 00:40 10.5 99 9.6 10.3 24 26 1024.6 0.4 21.9 29.1 46.3 121.7 117.9 406.0
08/05 00:30 10.4 99 9.54 10.2 22 32 1024.6 0.4 21.8 29.0 46.1 121.2 117.1 403.5
08/05 00:20 10.3 99 9.48 10.1 19 20 1024.6 0.4 21.6 28.9 45.9 120.6 116.4 401.0
08/05 00:10 10.2 99 9.42 10 20 24 1024.6 0.2 21.5 28.8 45.7 120.1 115.7 398.5
08/05 00:00 10.2 99 9.42 10.1 20 28 1024.7 0.2 21.5 28.8 45.7 120.1 115.7 398.5
07/05 23:50 10.1 99 9.36 9.9 22 28 1025 0.2 21.4 28.8 45.5 119.6 115.0 396.1
07/05 23:40 10.1 99 9.36 9.9 22 24 1025.1 0 21.4 28.8 45.5 119.6 115.1 396.1
07/05 23:30 10 99 9.3 9.9 22 30 1025.2 0 21.3 28.7 45.3 119.0 114.4 393.6
07/05 23:20 10 99 9.3 9.9 20 24 1025.2 0 21.3 28.7 45.3 119.0 114.4 393.6
07/05 23:10 9.9 99 9.25 9.8 22 28 1025.1 0 21.2 28.7 45.2 118.6 113.8 391.6
07/05 23:00 9.9 99 9.25 9.8 24 32 1025 0 21.2 28.7 45.2 118.6 113.8 391.6
07/05 22:50 9.8 99 9.19 9.7 24 30 1025.2 0 21.0 28.6 45.0 118.1 113.1 389.1
07/05 22:40 9.7 99 9.13 9.6 24 24 1025.3 0 20.9 28.5 44.8 117.5 112.4 386.6
07/05 22:30 9.7 99 9.13 9.6 22 33 1025.4 0 20.9 28.5 44.8 117.5 112.4 386.7
07/05 22:20 9.6 99 9.07 9.5 26 30 1025.4 0 20.8 28.5 44.6 117.0 111.7 384.1
07/05 22:10 9.6 98 8.98 9.3 26 30 1025.3 0 20.6 28.3 44.2 115.9 110.4 379.6
07/05 22:00 9.6 98 8.98 9.3 19 26 1025.3 0 20.6 28.3 44.2 115.9 110.4 379.6
07/05 21:50 9.6 98 8.98 9.3 22 24 1025.3 0 20.6 28.3 44.2 115.9 110.4 379.6
07/05 21:40 9.5 98 8.92 9.2 20 24 1025.4 0 20.5 28.2 44.0 115.4 109.6 377.1
07/05 21:30 9.4 98 8.87 9.1 20 28 1025.4 0 20.4 28.2 43.8 115.0 109.1 375.1
07/05 21:20 9.4 97 8.78 8.9 19 24 1025.4 0 20.2 28.0 43.4 113.9 107.8 370.6
07/05 21:10 9.3 96 8.63 8.7 20 22 1025.3 0 19.9 27.8 42.8 112.3 105.8 363.6
07/05 21:00 9.4 95 8.59 8.6 22 32 1025.3 0 19.8 27.7 42.6 111.7 105.1 361.1
07/05 20:50 9.5 93 8.47 8.4 22 26 1025.5 0 19.5 27.4 42.0 110.2 103.3 354.8
07/05 20:40 9.7 92 8.48 8.5 30 35 1025.6 0 19.5 27.4 42.0 110.1 103.2 354.4
07/05 20:30 9.7 92 8.48 8.5 26 37 1025.5 0 19.5 27.4 42.0 110.1 103.1 354.4
07/05 20:20 9.6 91 8.34 8.2 24 30 1025.5 0 19.2 27.2 41.4 108.6 101.3 348.0
07/05 20:10 9.7 90 8.3 8.1 24 28 1025.3 0 19.1 27.1 41.2 108.0 100.6 345.5
07/05 20:00 9.7 89 8.21 8 24 35 1025.2 0 18.9 26.9 40.8 107.0 99.3 341.1

Last Refresh: 08-May-2026 12:07:30

Bureau of Meteorology